Time;durP1;ratioP1;P1;durP2;ratioP2;P2;SDS_P1;SDS_P2;PMS_P1;PMS_P2;Temp;Humidity;BMP_temperature;BMP_pressure;BME280_temperature;BME280_humidity;BME280_pressure;Samples;Min_cycle;Max_cycle;Signal;HPM_P1;HPM_P2
2022/01/20 00:00:33;;;;;;;40.83;5.55;;;3.80;99.90;;;;;;5090129;28;20089;-45
2022/01/20 00:03:02;;;;;;;35.40;5.78;;;3.80;99.90;;;;;;5088288;28;20077;-47
2022/01/20 00:27:10;;;;;;;36.03;6.47;;;3.60;99.90;;;;;;5080613;28;20588;-45
2022/01/20 00:32:19;;;;;;;25.88;5.03;;;3.60;99.90;;;;;;5088848;28;20389;-46
2022/01/20 00:37:27;;;;;;;35.85;6.40;;;3.50;99.90;;;;;;5088712;28;20032;-46
2022/01/20 00:39:53;;;;;;;37.60;4.78;;;3.40;99.90;;;;;;5089095;28;20153;-46
2022/01/20 00:42:20;;;;;;;34.50;5.10;;;3.40;99.90;;;;;;5089245;28;20047;-45
2022/01/20 00:44:47;;;;;;;33.85;6.30;;;3.40;99.90;;;;;;5089043;28;20057;-48
2022/01/20 00:47:13;;;;;;;36.45;5.40;;;3.30;99.90;;;;;;5087168;28;20552;-45
2022/01/20 00:49:39;;;;;;;30.20;4.72;;;3.30;99.90;;;;;;5088385;28;20051;-46
2022/01/20 00:52:05;;;;;;;25.45;4.95;;;3.30;99.90;;;;;;5088938;28;20024;-46
2022/01/20 00:54:31;;;;;;;21.90;5.18;;;3.20;99.90;;;;;;5083929;28;20028;-48
2022/01/20 00:56:57;;;;;;;27.38;6.53;;;3.20;99.90;;;;;;5080423;28;20085;-46
2022/01/20 00:59:24;;;;;;;25.30;4.97;;;3.20;99.90;;;;;;5080580;28;20035;-46
2022/01/20 01:01:50;;;;;;;27.60;4.97;;;3.20;99.90;;;;;;5084845;28;20020;-45
2022/01/20 01:04:15;;;;;;;21.92;4.30;;;3.10;99.90;;;;;;5088767;28;20028;-46
2022/01/20 01:06:58;;;;;;;21.90;4.47;;;3.10;99.90;;;;;;5070680;28;20115;-46
2022/01/20 01:09:24;;;;;;;34.03;4.57;;;3.10;99.90;;;;;;5086798;28;20044;-47
2022/01/20 01:11:51;;;;;;;27.05;4.35;;;3.20;99.90;;;;;;5088776;28;20051;-45
2022/01/20 01:14:19;;;;;;;21.63;4.75;;;3.10;99.90;;;;;;5087130;28;20077;-47
2022/01/20 01:24:55;;;;;;;32.00;5.13;;;3.20;99.90;;;;;;5047729;28;20101;-45
2022/01/20 01:27:23;;;;;;;30.02;4.53;;;3.20;99.90;;;;;;5047691;28;20040;-46
2022/01/20 01:32:27;;;;;;;26.13;3.88;;;3.20;99.90;;;;;;5048434;28;20024;-45
2022/01/20 01:34:53;;;;;;;36.05;4.72;;;3.20;99.90;;;;;;5052408;28;20414;-45
2022/01/20 01:39:57;;;;;;;26.02;5.72;;;3.20;99.90;;;;;;5052550;28;20025;-46
2022/01/20 01:42:29;;;;;;;27.35;4.57;;;3.20;99.90;;;;;;5052391;28;20033;-45
2022/01/20 01:44:57;;;;;;;24.73;4.95;;;3.20;99.90;;;;;;5052292;28;20030;-45
2022/01/20 01:47:22;;;;;;;28.58;5.20;;;3.30;99.90;;;;;;5051376;28;20059;-45
2022/01/20 01:49:48;;;;;;;26.45;3.92;;;3.30;99.90;;;;;;5051864;28;20483;-47
2022/01/20 01:52:13;;;;;;;32.03;4.93;;;3.20;99.90;;;;;;5052256;28;20264;-47
2022/01/20 01:54:39;;;;;;;37.70;4.53;;;3.20;99.90;;;;;;5052375;28;20021;-46
2022/01/20 01:57:09;;;;;;;26.23;5.90;;;3.30;99.90;;;;;;5051900;28;20036;-46
2022/01/20 01:59:34;;;;;;;28.58;6.80;;;3.30;99.90;;;;;;5075139;28;20024;-45
2022/01/20 02:02:00;;;;;;;28.67;4.68;;;3.30;99.90;;;;;;5082572;28;20040;-46
2022/01/20 02:04:25;;;;;;;25.42;3.97;;;3.20;99.90;;;;;;5082376;28;20020;-46
2022/01/20 02:07:15;;;;;;;45.92;5.97;;;3.20;99.90;;;;;;5092156;28;20084;-46
2022/01/20 02:17:49;;;;;;;29.38;4.75;;;3.20;99.90;;;;;;5086346;28;20036;-47
2022/01/20 02:18:13;;;;;;;45.17;5.47;;;3.20;99.90;;;;;;5091051;28;20104;-47
2022/01/20 02:20:39;;;;;;;29.30;5.05;;;3.20;99.90;;;;;;5092262;28;20017;-48
2022/01/20 02:23:05;;;;;;;29.67;5.30;;;3.30;99.90;;;;;;5091691;28;20027;-45
2022/01/20 02:25:33;;;;;;;28.90;4.82;;;3.30;99.90;;;;;;5091726;28;20024;-46
2022/01/20 02:28:02;;;;;;;42.63;6.10;;;3.30;99.90;;;;;;5090582;28;20028;-46
2022/01/20 02:30:29;;;;;;;34.95;6.32;;;3.30;99.90;;;;;;5089892;28;20028;-46
2022/01/20 02:33:00;;;;;;;40.90;4.93;;;3.30;99.90;;;;;;5083246;28;20020;-46
2022/01/20 02:35:29;;;;;;;27.35;5.15;;;3.30;99.90;;;;;;5084140;28;20519;-46
2022/01/20 02:38:04;;;;;;;28.77;5.35;;;3.30;99.90;;;;;;5090831;28;20032;-46
2022/01/20 02:44:50;;;;;;;33.78;5.10;;;3.30;99.90;;;;;;5091793;28;20441;-46
2022/01/20 02:46:07;;;;;;;35.15;5.30;;;3.30;99.90;;;;;;5090299;28;20039;-46
2022/01/20 02:48:33;;;;;;;33.90;4.68;;;3.30;99.90;;;;;;5090090;28;20034;-46
2022/01/20 02:50:58;;;;;;;37.72;4.97;;;3.30;99.90;;;;;;5091277;28;20024;-47
2022/01/20 02:53:24;;;;;;;21.38;4.78;;;3.30;99.90;;;;;;5091198;28;20035;-46
2022/01/20 02:55:52;;;;;;;26.25;4.63;;;3.40;99.90;;;;;;5091150;28;20027;-46
2022/01/20 02:58:17;;;;;;;29.98;5.68;;;3.40;99.90;;;;;;5090389;28;20089;-46
2022/01/20 03:00:43;;;;;;;29.17;5.40;;;3.40;99.90;;;;;;5089850;28;20028;-46
2022/01/20 03:03:09;;;;;;;31.20;4.82;;;3.40;99.90;;;;;;5082177;28;20096;-48
2022/01/20 03:05:35;;;;;;;28.70;4.03;;;3.40;99.90;;;;;;5084807;28;20054;-46
2022/01/20 03:08:00;;;;;;;23.55;4.00;;;3.40;99.90;;;;;;5090407;28;20028;-46
2022/01/20 03:10:29;;;;;;;25.33;5.88;;;3.50;99.90;;;;;;5090847;28;20386;-45
2022/01/20 03:12:56;;;;;;;23.65;3.85;;;3.50;99.90;;;;;;5090666;28;20043;-45
2022/01/20 03:15:22;;;;;;;26.13;4.50;;;3.50;99.90;;;;;;5090606;28;20012;-45
2022/01/20 03:17:47;;;;;;;24.73;5.97;;;3.50;99.90;;;;;;5089826;28;20108;-46
2022/01/20 03:20:13;;;;;;;22.60;4.80;;;3.60;99.90;;;;;;5090440;28;20490;-46
2022/01/20 03:22:38;;;;;;;27.38;3.92;;;3.60;99.90;;;;;;5090443;28;20069;-46
2022/01/20 03:25:05;;;;;;;25.05;4.68;;;3.60;99.90;;;;;;5090324;28;20436;-45
2022/01/20 03:27:30;;;;;;;18.83;5.55;;;3.70;99.90;;;;;;5089810;28;20140;-46
2022/01/20 03:29:56;;;;;;;15.85;3.78;;;3.70;99.90;;;;;;5090374;28;20111;-44
2022/01/20 03:32:21;;;;;;;33.10;4.05;;;3.80;99.90;;;;;;5085094;28;20422;-46
2022/01/20 03:34:47;;;;;;;23.23;4.15;;;3.80;99.90;;;;;;5081906;28;20623;-45
2022/01/20 03:37:12;;;;;;;32.78;4.90;;;3.80;99.90;;;;;;5088815;28;20473;-45
2022/01/20 03:39:38;;;;;;;20.48;5.82;;;3.90;99.90;;;;;;5089984;28;20093;-46
2022/01/20 03:42:04;;;;;;;30.48;4.20;;;3.90;99.90;;;;;;5090521;28;20043;-49
2022/01/20 03:44:29;;;;;;;21.73;4.30;;;3.90;99.90;;;;;;5090475;28;20032;-47
2022/01/20 03:46:57;;;;;;;41.50;5.07;;;3.90;99.90;;;;;;5089993;28;20029;-46
2022/01/20 03:49:53;;;;;;;28.02;4.47;;;3.90;99.90;;;;;;5089510;28;20028;-45
2022/01/20 03:52:19;;;;;;;35.65;7.10;;;3.90;99.90;;;;;;5090237;28;20396;-44
2022/01/20 03:54:44;;;;;;;19.48;4.72;;;3.90;99.90;;;;;;5089948;28;20035;-48
2022/01/20 03:57:10;;;;;;;22.50;4.43;;;3.80;99.90;;;;;;5088268;28;20110;-47
2022/01/20 03:59:35;;;;;;;22.75;3.70;;;3.80;99.90;;;;;;5089300;28;20035;-45
2022/01/20 04:02:02;;;;;;;21.13;3.70;;;3.80;99.90;;;;;;5083567;28;20032;-46
2022/01/20 04:04:27;;;;;;;21.42;4.20;;;3.70;99.90;;;;;;5081273;28;20028;-46
2022/01/20 04:06:54;;;;;;;17.85;4.03;;;3.70;99.90;;;;;;5089691;28;20028;-46
2022/01/20 04:09:20;;;;;;;20.52;4.90;;;3.60;99.90;;;;;;5089032;28;20043;-46
2022/01/20 04:11:45;;;;;;;20.83;3.13;;;3.60;99.90;;;;;;5089685;28;20658;-46
2022/01/20 04:14:12;;;;;;;19.77;2.97;;;3.60;99.90;;;;;;5089569;28;20107;-46
2022/01/20 04:17:04;;;;;;;28.10;4.97;;;3.60;99.90;;;;;;5061403;28;20029;-46
2022/01/20 04:19:32;;;;;;;16.25;3.33;;;3.50;99.90;;;;;;5057828;28;20023;-47
2022/01/20 04:21:58;;;;;;;16.02;2.80;;;3.50;99.90;;;;;;5058847;28;20033;-48
2022/01/20 04:24:24;;;;;;;15.38;3.65;;;3.40;99.90;;;;;;5057974;28;21318;-46
2022/01/20 04:26:49;;;;;;;13.98;2.65;;;3.30;99.90;;;;;;5064810;28;20020;-48
2022/01/20 04:29:16;;;;;;;18.10;2.63;;;3.20;99.90;;;;;;5058417;28;20047;-46
2022/01/20 04:31:43;;;;;;;8.75;2.22;;;3.20;99.90;;;;;;5058728;28;20115;-47
2022/01/20 04:34:10;;;;;;;8.57;2.00;;;3.10;99.90;;;;;;5066836;28;20028;-47
2022/01/20 04:36:39;;;;;;;10.68;2.35;;;3.00;99.90;;;;;;5057418;28;20063;-49
2022/01/20 04:39:08;;;;;;;14.20;2.78;;;3.00;99.90;;;;;;5058877;28;20047;-46
2022/01/20 04:41:33;;;;;;;15.05;3.10;;;3.00;99.90;;;;;;5056986;28;20543;-45
2022/01/20 04:44:01;;;;;;;16.60;2.63;;;3.00;99.90;;;;;;5059619;28;20033;-46
2022/01/20 04:46:38;;;;;;;16.40;2.38;;;3.00;99.90;;;;;;5058413;28;20517;-47
2022/01/20 04:57:01;;;;;;;8.85;2.35;;;3.00;99.90;;;;;;5053390;28;20025;-47
2022/01/20 04:57:20;;;;;;;13.13;2.95;;;3.00;99.90;;;;;;5048089;28;20028;-46
2022/01/20 04:59:47;;;;;;;15.75;3.92;;;3.00;99.90;;;;;;5048805;28;20021;-49
2022/01/20 05:02:12;;;;;;;14.32;2.70;;;3.00;99.90;;;;;;5056547;28;20413;-46
2022/01/20 05:04:39;;;;;;;18.95;3.15;;;3.00;99.90;;;;;;5080320;28;20103;-47
2022/01/20 05:07:05;;;;;;;13.20;3.00;;;3.00;99.90;;;;;;5086965;28;20024;-46
2022/01/20 05:09:31;;;;;;;31.63;6.15;;;2.90;99.90;;;;;;5078631;28;20256;-46
2022/01/20 05:12:00;;;;;;;23.55;4.82;;;2.90;99.90;;;;;;5082259;28;20510;-45
2022/01/20 05:14:27;;;;;;;21.25;3.75;;;2.90;99.90;;;;;;5078336;28;20123;-45
2022/01/20 05:16:55;;;;;;;20.10;3.22;;;2.90;99.90;;;;;;5074651;28;20056;-47
2022/01/20 05:19:21;;;;;;;19.95;5.07;;;2.90;99.90;;;;;;5077556;28;20163;-48
2022/01/20 05:21:47;;;;;;;27.30;4.03;;;3.00;99.90;;;;;;5065084;28;20020;-47
2022/01/20 05:24:12;;;;;;;24.15;4.80;;;2.90;99.90;;;;;;5060972;28;20029;-47
2022/01/20 05:26:38;;;;;;;17.92;3.35;;;3.00;99.90;;;;;;5062649;28;20021;-47
2022/01/20 05:29:03;;;;;;;16.25;2.90;;;2.90;99.90;;;;;;5061466;28;20021;-46
2022/01/20 05:31:29;;;;;;;15.18;2.58;;;2.90;99.90;;;;;;5064082;28;20024;-46
2022/01/20 05:33:54;;;;;;;19.65;3.35;;;2.80;99.90;;;;;;5071927;28;20046;-46
2022/01/20 05:36:20;;;;;;;22.80;3.05;;;2.80;99.90;;;;;;5066110;28;20036;-46
2022/01/20 05:38:45;;;;;;;14.50;3.63;;;2.70;99.90;;;;;;5061232;28;20035;-47
2022/01/20 05:41:11;;;;;;;11.02;2.65;;;2.70;99.90;;;;;;5062655;28;20047;-46
2022/01/20 05:43:36;;;;;;;13.02;2.53;;;2.70;99.90;;;;;;5059050;28;20028;-47
2022/01/20 05:46:04;;;;;;;12.65;2.63;;;2.60;99.90;;;;;;5058613;28;20024;-46
2022/01/20 05:48:34;;;;;;;18.13;2.17;;;2.60;99.90;;;;;;5052287;28;20573;-46
2022/01/20 05:51:00;;;;;;;;;;;2.60;99.90;;;;;;5048739;28;20009;-46
2022/01/20 05:53:26;;;;;;;18.38;2.45;;;2.60;99.90;;;;;;5048226;28;20154;-47
2022/01/20 05:55:52;;;;;;;18.33;2.40;;;2.50;99.90;;;;;;5048118;28;20030;-48
2022/01/20 05:58:19;;;;;;;13.57;3.78;;;2.50;99.90;;;;;;5050148;28;20093;-46
2022/01/20 06:00:46;;;;;;;21.65;3.70;;;2.40;99.90;;;;;;5055959;28;20064;-46
2022/01/20 06:05:57;;;;;;;11.52;2.35;;;2.40;99.90;;;;;;5060241;28;20052;-47
2022/01/20 06:08:22;;;;;;;14.38;2.78;;;2.40;99.90;;;;;;5067975;28;20025;-46
2022/01/20 06:10:48;;;;;;;18.05;2.97;;;2.40;99.90;;;;;;5067234;28;20526;-47
2022/01/20 06:13:13;;;;;;;18.25;2.92;;;2.40;99.90;;;;;;5067754;28;20371;-48
2022/01/20 06:15:39;;;;;;;13.70;3.00;;;2.30;99.90;;;;;;5068355;28;20104;-48
2022/01/20 06:18:05;;;;;;;13.85;2.72;;;2.30;99.90;;;;;;5067296;28;20021;-47
2022/01/20 06:20:32;;;;;;;16.42;3.17;;;2.30;99.90;;;;;;5071194;28;20500;-46
2022/01/20 06:22:57;;;;;;;13.35;2.33;;;2.20;99.90;;;;;;5071283;28;20111;-47
2022/01/20 06:25:24;;;;;;;9.00;2.17;;;2.20;99.90;;;;;;5071335;28;20107;-47
2022/01/20 06:27:50;;;;;;;17.60;3.15;;;2.10;99.90;;;;;;5069451;28;20020;-46
2022/01/20 06:30:15;;;;;;;15.45;3.03;;;2.10;99.90;;;;;;5071631;28;20024;-46
2022/01/20 06:32:42;;;;;;;14.15;2.88;;;2.00;99.90;;;;;;5071253;28;20674;-46
2022/01/20 06:35:08;;;;;;;22.42;4.07;;;2.10;99.90;;;;;;5071242;28;20092;-46
2022/01/20 06:37:35;;;;;;;15.25;2.72;;;2.10;99.90;;;;;;5064473;28;20051;-46
2022/01/20 06:40:00;;;;;;;16.45;3.20;;;2.00;99.90;;;;;;5071251;28;20029;-46
2022/01/20 06:42:26;;;;;;;14.13;2.50;;;2.00;99.90;;;;;;5069725;28;20043;-53
2022/01/20 06:44:51;;;;;;;16.00;3.53;;;2.00;99.90;;;;;;5058678;28;20064;-46
2022/01/20 06:47:19;;;;;;;19.48;4.43;;;2.00;99.90;;;;;;5050768;28;20033;-45
2022/01/20 06:49:46;;;;;;;19.92;3.55;;;2.00;99.90;;;;;;5050753;28;20493;-46
2022/01/20 06:52:11;;;;;;;22.95;3.15;;;2.00;99.90;;;;;;5056793;28;20259;-46
2022/01/20 06:54:37;;;;;;;16.92;3.75;;;1.90;99.90;;;;;;5069363;28;20525;-46
2022/01/20 06:57:03;;;;;;;25.25;3.53;;;2.00;99.90;;;;;;5070207;28;20032;-46
2022/01/20 06:59:29;;;;;;;19.33;3.33;;;1.90;99.90;;;;;;5069847;28;20107;-46
2022/01/20 07:01:55;;;;;;;22.13;4.85;;;1.90;99.90;;;;;;5069643;28;20585;-46
2022/01/20 07:04:20;;;;;;;14.77;3.85;;;1.90;99.90;;;;;;5070307;28;20032;-46
2022/01/20 07:06:46;;;;;;;23.48;3.53;;;1.90;99.90;;;;;;5068389;28;20624;-48
2022/01/20 07:09:11;;;;;;;26.08;4.13;;;1.90;99.90;;;;;;5067812;28;20097;-46
2022/01/20 07:11:38;;;;;;;20.45;3.78;;;1.90;99.90;;;;;;5067957;28;20391;-46
2022/01/20 07:14:04;;;;;;;9.98;2.55;;;1.80;99.90;;;;;;5069481;28;20021;-47
2022/01/20 07:16:30;;;;;;;18.15;3.42;;;1.80;99.90;;;;;;5069513;28;20089;-47
2022/01/20 07:18:56;;;;;;;16.25;3.50;;;1.80;99.90;;;;;;5069002;28;20112;-45
2022/01/20 07:21:21;;;;;;;19.30;3.50;;;1.80;99.90;;;;;;5067988;28;20021;-45
2022/01/20 07:23:48;;;;;;;22.65;3.95;;;1.70;99.90;;;;;;5069233;28;20656;-46
2022/01/20 07:26:13;;;;;;;19.02;5.38;;;1.80;99.90;;;;;;5069740;28;20131;-46
2022/01/20 07:28:39;;;;;;;17.85;2.83;;;1.70;99.90;;;;;;5069127;28;20139;-45
2022/01/20 07:31:06;;;;;;;29.85;4.15;;;1.80;99.90;;;;;;5067989;28;20032;-46
2022/01/20 07:33:31;;;;;;;19.08;3.53;;;1.70;99.90;;;;;;5069608;28;20024;-45
2022/01/20 07:35:57;;;;;;;19.40;2.75;;;1.70;99.90;;;;;;5069529;28;20497;-46
2022/01/20 07:38:22;;;;;;;15.88;3.40;;;1.80;99.90;;;;;;5068985;28;20115;-45
2022/01/20 07:40:48;;;;;;;16.90;2.83;;;1.70;99.90;;;;;;5069139;28;20024;-46
2022/01/20 07:43:14;;;;;;;17.05;4.00;;;1.70;99.90;;;;;;5069346;28;20037;-45
2022/01/20 07:45:40;;;;;;;27.33;4.18;;;1.60;99.90;;;;;;5069406;28;20033;-45
2022/01/20 07:48:06;;;;;;;13.77;2.88;;;1.70;99.90;;;;;;5068900;28;20602;-45
2022/01/20 07:50:31;;;;;;;19.85;2.90;;;1.70;99.90;;;;;;5069046;28;20502;-45
2022/01/20 07:52:57;;;;;;;18.83;2.78;;;1.70;99.90;;;;;;5065217;28;20478;-46
2022/01/20 07:55:22;;;;;;;24.95;5.40;;;1.70;99.90;;;;;;5059223;28;20025;-46
2022/01/20 07:57:48;;;;;;;20.15;3.25;;;1.70;99.90;;;;;;5068064;28;20020;-46
2022/01/20 08:00:14;;;;;;;13.60;3.40;;;1.70;99.90;;;;;;5067733;28;20032;-46
2022/01/20 08:02:39;;;;;;;21.02;3.22;;;1.70;99.90;;;;;;5068717;28;20029;-46
2022/01/20 08:05:05;;;;;;;19.95;3.40;;;1.70;99.90;;;;;;5069110;28;20025;-46
2022/01/20 08:07:31;;;;;;;21.33;3.28;;;1.70;99.90;;;;;;5067948;28;20032;-46
2022/01/20 08:09:58;;;;;;;15.68;3.22;;;1.60;99.90;;;;;;5067968;28;20063;-46
2022/01/20 08:12:28;;;;;;;15.15;3.97;;;1.70;99.90;;;;;;5068472;28;20036;-46
2022/01/20 08:14:55;;;;;;;23.10;4.40;;;1.70;99.90;;;;;;5068061;28;20577;-45
2022/01/20 08:17:21;;;;;;;20.10;3.10;;;1.70;99.90;;;;;;5067875;28;20032;-46
2022/01/20 08:19:47;;;;;;;22.08;3.88;;;1.70;99.90;;;;;;5068782;28;20032;-48
2022/01/20 08:22:13;;;;;;;14.77;3.25;;;1.70;99.90;;;;;;5068663;28;20028;-46
2022/01/20 08:24:41;;;;;;;27.85;4.57;;;1.80;99.90;;;;;;5068516;28;20024;-46
2022/01/20 08:27:06;;;;;;;17.77;3.60;;;1.80;99.90;;;;;;5068568;28;20074;-46
2022/01/20 08:29:32;;;;;;;20.58;4.18;;;1.80;99.90;;;;;;5067884;28;20036;-45
2022/01/20 08:31:57;;;;;;;17.90;3.95;;;1.90;99.90;;;;;;5068124;28;20111;-48
2022/01/20 08:34:23;;;;;;;13.00;3.03;;;1.90;99.90;;;;;;5065463;28;20044;-47
2022/01/20 08:36:50;;;;;;;21.63;4.95;;;1.90;99.90;;;;;;5066939;28;20470;-48
2022/01/20 08:42:00;;;;;;;18.10;5.28;;;1.90;99.90;;;;;;5066410;28;20570;-46
2022/01/20 08:44:26;;;;;;;21.17;4.18;;;2.00;99.90;;;;;;5066425;28;20098;-45
2022/01/20 08:46:53;;;;;;;16.75;4.50;;;2.00;99.90;;;;;;5068331;28;20025;-46
2022/01/20 08:49:20;;;;;;;20.05;4.40;;;2.00;99.90;;;;;;5067478;28;20024;-47
2022/01/20 08:51:45;;;;;;;16.67;3.65;;;2.00;99.90;;;;;;5068146;28;20484;-46
2022/01/20 08:54:11;;;;;;;24.33;4.35;;;2.10;99.90;;;;;;5064631;28;20040;-47
2022/01/20 08:56:36;;;;;;;16.95;3.53;;;2.10;99.90;;;;;;5061151;28;20036;-45
2022/01/20 08:59:05;;;;;;;17.73;4.32;;;2.20;99.90;;;;;;5067112;28;20028;-47
2022/01/20 09:01:32;;;;;;;16.15;3.20;;;2.20;99.90;;;;;;5067569;28;20039;-45
2022/01/20 09:03:57;;;;;;;18.85;3.83;;;2.20;99.90;;;;;;5066229;28;20035;-46
2022/01/20 09:06:23;;;;;;;25.77;4.93;;;2.30;99.90;;;;;;5068116;28;20462;-46
2022/01/20 09:08:50;;;;;;;23.08;4.43;;;2.30;99.90;;;;;;5065868;28;20645;-48
2022/01/20 09:11:20;;;;;;;22.02;4.75;;;2.30;99.90;;;;;;5066674;28;20040;-46
2022/01/20 09:16:31;;;;;;;15.80;3.20;;;2.40;99.90;;;;;;5068267;28;20043;-46
2022/01/20 09:18:57;;;;;;;16.85;4.50;;;2.40;99.90;;;;;;5067185;28;20032;-45
2022/01/20 09:21:23;;;;;;;19.42;3.00;;;2.40;99.90;;;;;;5067943;28;20070;-47
2022/01/20 09:23:49;;;;;;;23.73;4.63;;;2.40;99.90;;;;;;5067895;28;20017;-45
2022/01/20 09:26:15;;;;;;;19.13;4.43;;;2.50;99.90;;;;;;5068082;28;20028;-46
2022/01/20 09:28:42;;;;;;;23.90;5.07;;;2.60;99.90;;;;;;5067822;28;20546;-45
2022/01/20 09:31:08;;;;;;;24.40;4.90;;;2.60;99.90;;;;;;5066967;28;20024;-46
2022/01/20 09:33:34;;;;;;;14.13;3.22;;;2.60;99.90;;;;;;5068225;28;20070;-46
2022/01/20 09:35:59;;;;;;;22.77;4.18;;;2.60;99.90;;;;;;5068245;28;20032;-46
2022/01/20 09:38:26;;;;;;;26.40;3.53;;;2.60;99.90;;;;;;5067781;28;20482;-46
2022/01/20 09:40:52;;;;;;;27.55;3.60;;;2.70;99.90;;;;;;5068224;28;20396;-46
2022/01/20 09:43:18;;;;;;;21.95;4.18;;;2.70;99.90;;;;;;5067084;28;20017;-47
2022/01/20 09:45:48;;;;;;;26.73;3.92;;;2.80;99.90;;;;;;5068242;28;20116;-46
2022/01/20 09:48:15;;;;;;;24.35;4.30;;;2.90;99.90;;;;;;5067424;28;20025;-45
2022/01/20 09:50:40;;;;;;;24.67;4.63;;;3.10;99.90;;;;;;5066910;28;20033;-46
2022/01/20 09:53:06;;;;;;;21.33;3.40;;;3.20;99.90;;;;;;5068107;28;20417;-46
2022/01/20 09:55:32;;;;;;;13.73;2.80;;;3.40;99.90;;;;;;5071606;28;20020;-46
2022/01/20 09:57:58;;;;;;;26.00;3.67;;;3.50;99.90;;;;;;5071204;28;20539;-46
2022/01/20 10:00:24;;;;;;;17.42;2.83;;;3.50;99.90;;;;;;5072113;28;20029;-46
2022/01/20 10:02:53;;;;;;;16.98;3.20;;;3.50;99.90;;;;;;5071850;28;20032;-46
2022/01/20 10:05:44;;;;;;;19.92;3.38;;;3.40;99.90;;;;;;5071811;28;20064;-49
2022/01/20 10:08:21;;;;;;;18.67;3.45;;;3.40;99.90;;;;;;5071097;28;20036;-45
2022/01/20 10:10:52;;;;;;;15.65;3.35;;;3.40;99.90;;;;;;5071759;28;20027;-45
2022/01/20 10:13:21;;;;;;;18.00;3.60;;;3.50;99.90;;;;;;5072146;28;20474;-46
2022/01/20 10:16:21;;;;;;;15.27;2.83;;;3.70;99.90;;;;;;5071712;28;20032;-46
2022/01/20 10:18:48;;;;;;;13.73;2.70;;;4.00;99.90;;;;;;5069796;28;20036;-46
2022/01/20 10:21:16;;;;;;;16.55;4.88;;;4.10;99.90;;;;;;5070241;28;20028;-45
2022/01/20 10:23:47;;;;;;;12.98;3.20;;;4.00;99.90;;;;;;5071246;28;20056;-47
2022/01/20 10:26:15;;;;;;;17.35;3.35;;;3.90;99.90;;;;;;5071466;28;20025;-46
2022/01/20 10:29:00;;;;;;;17.05;3.83;;;3.80;99.90;;;;;;5070723;28;20031;-45
2022/01/20 10:31:34;;;;;;;25.63;3.90;;;3.70;99.90;;;;;;5071454;28;20020;-46
2022/01/20 10:34:01;;;;;;;23.88;3.65;;;3.60;99.90;;;;;;5070069;28;20047;-46
2022/01/20 10:36:27;;;;;;;17.40;4.07;;;3.50;99.90;;;;;;5071548;28;20389;-47
2022/01/20 10:38:55;;;;;;;17.20;3.88;;;3.40;99.90;;;;;;5070603;28;20029;-47
2022/01/20 10:41:38;;;;;;;17.88;3.63;;;3.50;99.90;;;;;;5071171;28;20497;-48
2022/01/20 10:44:07;;;;;;;13.90;3.63;;;3.40;99.90;;;;;;5069932;28;20119;-48
2022/01/20 10:46:50;;;;;;;14.35;3.47;;;3.50;99.90;;;;;;5071348;28;20046;-48
2022/01/20 10:49:17;;;;;;;23.35;4.55;;;3.40;99.90;;;;;;5070489;28;20127;-47
2022/01/20 10:51:53;;;;;;;11.48;3.40;;;3.40;99.90;;;;;;5069631;28;20542;-48
2022/01/20 10:54:18;;;;;;;21.10;3.92;;;3.40;99.90;;;;;;5071084;28;20024;-47
2022/01/20 10:56:53;;;;;;;17.30;3.38;;;3.40;99.90;;;;;;5071152;28;20116;-48
2022/01/20 10:59:20;;;;;;;18.90;3.33;;;3.40;99.90;;;;;;5070592;28;20032;-48
2022/01/20 11:02:09;;;;;;;21.20;4.22;;;3.50;99.90;;;;;;5071032;28;20036;-48
2022/01/20 11:04:37;;;;;;;10.45;2.63;;;3.50;99.90;;;;;;5071024;28;20060;-51
2022/01/20 11:07:06;;;;;;;17.58;3.10;;;3.50;99.90;;;;;;5068581;28;20063;-48
2022/01/20 11:09:35;;;;;;;11.93;2.75;;;3.40;99.90;;;;;;5070140;28;20017;-48
2022/01/20 11:12:02;;;;;;;14.75;3.25;;;3.50;99.90;;;;;;5070794;28;20035;-49
2022/01/20 11:14:29;;;;;;;12.85;2.88;;;3.40;99.90;;;;;;5070589;28;20059;-47
2022/01/20 11:16:57;;;;;;;18.25;3.00;;;3.40;99.90;;;;;;5069360;28;20029;-47
2022/01/20 11:19:23;;;;;;;19.02;3.28;;;3.30;99.90;;;;;;5069838;28;20028;-47
2022/01/20 11:21:49;;;;;;;16.88;3.10;;;3.30;99.90;;;;;;5070520;28;20025;-46
2022/01/20 11:24:20;;;;;;;14.45;3.20;;;3.30;99.90;;;;;;5070881;28;20573;-48
2022/01/20 11:26:50;;;;;;;15.10;2.80;;;3.30;99.90;;;;;;5070312;28;20474;-48
2022/01/20 11:29:16;;;;;;;15.18;3.10;;;3.30;99.90;;;;;;5069688;28;20024;-48
2022/01/20 11:31:43;;;;;;;14.88;2.90;;;3.40;99.90;;;;;;5070241;28;20016;-48
2022/01/20 11:34:16;;;;;;;11.40;3.65;;;3.50;99.90;;;;;;5070198;28;20025;-48
2022/01/20 11:36:42;;;;;;;21.15;3.67;;;3.70;99.90;;;;;;5070110;28;20039;-47
2022/01/20 11:39:08;;;;;;;14.65;3.28;;;3.50;99.90;;;;;;5069433;28;20033;-48
2022/01/20 11:41:47;;;;;;;15.55;3.08;;;3.40;99.90;;;;;;5068717;28;20036;-48
2022/01/20 11:44:26;;;;;;;10.00;2.35;;;3.30;99.90;;;;;;5070134;28;20032;-50
2022/01/20 11:46:53;;;;;;;15.43;2.60;;;3.50;99.90;;;;;;5070116;28;20024;-48
2022/01/20 11:49:21;;;;;;;8.18;2.40;;;3.80;99.90;;;;;;5069236;28;20035;-48
2022/01/20 11:51:58;;;;;;;22.42;3.15;;;3.70;99.90;;;;;;5069919;28;20103;-47
2022/01/20 11:54:28;;;;;;;16.40;2.75;;;3.70;99.90;;;;;;5069828;28;20033;-50
2022/01/20 11:57:17;;;;;;;12.15;2.60;;;3.90;99.90;;;;;;5069742;28;20168;-48
2022/01/20 11:59:45;;;;;;;14.27;2.90;;;4.60;99.90;;;;;;5069726;28;20524;-48
2022/01/20 12:02:25;;;;;;;10.00;2.90;;;5.00;99.90;;;;;;5069625;28;20029;-47
2022/01/20 12:04:51;;;;;;;14.15;2.83;;;4.70;99.90;;;;;;5060673;28;20025;-48
2022/01/20 12:07:26;;;;;;;11.13;2.45;;;4.60;99.90;;;;;;5056254;28;20029;-47
2022/01/20 12:10:02;;;;;;;16.65;3.13;;;4.30;99.90;;;;;;5058942;28;20016;-47
2022/01/20 12:12:28;;;;;;;12.93;2.83;;;4.10;99.90;;;;;;5058899;28;20021;-47
2022/01/20 12:14:54;;;;;;;13.90;3.08;;;3.90;99.90;;;;;;5058641;28;20078;-48
2022/01/20 12:17:20;;;;;;;14.52;3.15;;;3.70;99.90;;;;;;5059159;28;20017;-49
2022/01/20 12:19:52;;;;;;;15.88;2.80;;;3.60;99.90;;;;;;5054942;28;20044;-48
2022/01/20 12:22:18;;;;;;;16.80;3.22;;;3.60;99.90;;;;;;5058610;28;20024;-48
2022/01/20 12:24:55;;;;;;;14.85;3.40;;;3.40;99.90;;;;;;5056199;28;20290;-48
2022/01/20 12:27:23;;;;;;;13.05;3.20;;;3.30;99.90;;;;;;5053200;28;20367;-51
2022/01/20 12:29:48;;;;;;;14.25;3.60;;;3.30;99.90;;;;;;5047708;28;20487;-48
2022/01/20 12:32:17;;;;;;;16.55;2.92;;;3.30;99.90;;;;;;5047930;28;20171;-48
2022/01/20 12:34:43;;;;;;;15.25;3.70;;;3.30;99.90;;;;;;5048574;28;20433;-48
2022/01/20 12:37:10;;;;;;;12.15;3.15;;;3.30;99.90;;;;;;5049098;28;20033;-50
2022/01/20 12:39:38;;;;;;;14.93;3.13;;;3.30;99.90;;;;;;5047513;28;20033;-47
2022/01/20 12:42:09;;;;;;;11.25;2.80;;;3.40;99.90;;;;;;5049013;28;20387;-46
2022/01/20 12:44:41;;;;;;;13.40;2.75;;;3.40;99.90;;;;;;5049012;28;20029;-46
2022/01/20 12:47:08;;;;;;;10.82;3.17;;;3.50;99.90;;;;;;5047612;28;20029;-48
2022/01/20 12:49:33;;;;;;;9.55;2.65;;;3.50;99.90;;;;;;5048832;28;20025;-48
2022/01/20 12:51:59;;;;;;;15.15;3.28;;;3.50;99.90;;;;;;5048750;28;20023;-47
2022/01/20 12:54:30;;;;;;;15.50;2.40;;;3.50;99.90;;;;;;5048765;28;20025;-47
2022/01/20 12:57:06;;;;;;;14.05;2.85;;;3.50;99.90;;;;;;5054034;28;20207;-49
2022/01/20 12:59:34;;;;;;;15.77;2.53;;;3.50;99.90;;;;;;5058048;28;20021;-49
2022/01/20 13:02:10;;;;;;;11.38;2.85;;;3.40;99.90;;;;;;5056743;28;20049;-47
2022/01/20 13:04:37;;;;;;;9.63;2.78;;;3.40;99.90;;;;;;5067406;28;20021;-50
2022/01/20 13:07:05;;;;;;;14.15;2.70;;;3.40;99.90;;;;;;5067091;28;20592;-48
2022/01/20 13:09:53;;;;;;;10.43;2.40;;;3.50;99.90;;;;;;5063623;28;20106;-47
2022/01/20 13:12:30;;;;;;;12.07;3.10;;;3.60;99.90;;;;;;5067806;28;20505;-49
2022/01/20 13:14:56;;;;;;;14.57;2.75;;;3.70;99.90;;;;;;5067693;28;20143;-47
2022/01/20 13:17:26;;;;;;;15.93;3.50;;;3.80;99.90;;;;;;5061672;28;20128;-48
2022/01/20 13:19:54;;;;;;;11.50;2.33;;;3.80;99.90;;;;;;5067681;28;20028;-48
2022/01/20 13:22:43;;;;;;;10.75;2.72;;;3.80;99.90;;;;;;5068097;28;20050;-48
2022/01/20 13:25:13;;;;;;;11.30;2.30;;;3.70;99.90;;;;;;5056261;28;20031;-49
2022/01/20 13:27:50;;;;;;;18.08;2.38;;;3.60;99.90;;;;;;5056707;28;20552;-49
2022/01/20 13:30:40;;;;;;;6.78;2.05;;;3.50;99.90;;;;;;5061093;28;20028;-48
2022/01/20 13:33:13;;;;;;;10.90;1.70;;;3.30;99.90;;;;;;5059050;28;20377;-48
2022/01/20 13:35:41;;;;;;;11.93;2.22;;;3.20;99.90;;;;;;5065462;28;20493;-47
2022/01/20 13:38:08;;;;;;;12.75;2.58;;;3.10;99.90;;;;;;5071389;28;20024;-49
2022/01/20 13:40:35;;;;;;;11.88;2.08;;;2.90;99.90;;;;;;5071954;28;20446;-47
2022/01/20 13:45:38;;;;;;;4.00;1.40;;;2.90;99.90;;;;;;5071655;28;20028;-48
2022/01/20 13:48:05;;;;;;;5.18;1.50;;;2.90;99.90;;;;;;5071384;28;20420;-47
2022/01/20 13:50:34;;;;;;;16.75;1.90;;;2.80;99.90;;;;;;5071934;28;20094;-48
2022/01/20 13:53:02;;;;;;;5.43;1.58;;;2.80;99.90;;;;;;5071664;28;20270;-50
2022/01/20 13:55:35;;;;;;;4.22;1.40;;;2.80;99.90;;;;;;5071574;28;20119;-48
2022/01/20 13:58:01;;;;;;;8.85;1.77;;;2.80;99.90;;;;;;5069431;28;20480;-46